THY3FW EGKK-LTFM
Flight info
| Callsign | THY3FW |
|---|---|
| Flight time | N/A |
| Altitude | 23000 |
| Route | MIMFO1M MIMFO Y312 DVR L9 KONAN/N0453F330 UL607 KOK DCT REMBA DCT MATUG/N0454F350 DCT BOMBI DCT TENLO DCT LAMSI DCT ARSIN DCT GITAS DCT MAVIR DCT GOVIN DCT PADGU DCT TIMUR L606 GASRU DCT RILEX RILEX1A |
| Aircraft | A321/M-V/N |
Departure
| Time | 2026-04-14 16:09 |
|---|---|
| Airport | London Gatwick Airport (EGKK) |
Arrival
| Time | N/A |
|---|---|
| Airport | İstanbul Airport (LTFM) |
| Time | Latitude | Longitude | Altitude | Speed | Heading |
|---|---|---|---|---|---|
| 2026-04-14 15:21 | 51.15502 | -0.16777 | 204 ft | 0 kts | 348° |
| 2026-04-14 15:56 | 51.15497 | -0.16775 | 204 ft | 4 kts | 349° |
| 2026-04-14 15:57 | 51.15472 | -0.16775 | 208 ft | 4 kts | 26° |
| 2026-04-14 15:57 | 51.15458 | -0.16799 | 212 ft | 3 kts | 94° |
| 2026-04-14 15:57 | 51.15458 | -0.16806 | 210 ft | 0 kts | 99° |
| 2026-04-14 16:00 | 51.15458 | -0.16807 | 204 ft | 0 kts | 99° |
| 2026-04-14 16:01 | 51.15456 | -0.16781 | 214 ft | 5 kts | 99° |
| 2026-04-14 16:01 | 51.15439 | -0.16731 | 207 ft | 5 kts | 147° |
| 2026-04-14 16:02 | 51.15400 | -0.16714 | 212 ft | 6 kts | 167° |
| 2026-04-14 16:02 | 51.15356 | -0.16697 | 204 ft | 7 kts | 167° |
| 2026-04-14 16:02 | 51.15308 | -0.16672 | 209 ft | 8 kts | 168° |
| 2026-04-14 16:02 | 51.15253 | -0.16653 | 204 ft | 5 kts | 167° |
| 2026-04-14 16:03 | 51.15252 | -0.16653 | 204 ft | 0 kts | 167° |
| 2026-04-14 16:07 | 51.15253 | -0.16653 | 204 ft | 0 kts | 167° |
| 2026-04-14 16:07 | 51.15242 | -0.16650 | 212 ft | 5 kts | 167° |
| 2026-04-14 16:07 | 51.15190 | -0.16631 | 210 ft | 10 kts | 167° |
| 2026-04-14 16:08 | 51.15140 | -0.16680 | 211 ft | 10 kts | 249° |
| 2026-04-14 16:08 | 51.15128 | -0.16755 | 212 ft | 0 kts | 257° |
| 2026-04-14 16:08 | 51.15128 | -0.16756 | 212 ft | 0 kts | 257° |
| 2026-04-14 16:09 | 51.15086 | -0.17039 | 212 ft | 62 kts | 257° |
| 2026-04-14 16:09 | 51.14947 | -0.18060 | 207 ft | 125 kts | 258° |
| 2026-04-14 16:09 | 51.14722 | -0.19687 | 240 ft | 171 kts | 254° |
| 2026-04-14 16:09 | 51.14491 | -0.21518 | 905 ft | 167 kts | 253° |
| 2026-04-14 16:10 | 51.14254 | -0.23329 | 1584 ft | 168 kts | 251° |
| 2026-04-14 16:10 | 51.13992 | -0.25221 | 1890 ft | 185 kts | 250° |
| 2026-04-14 16:10 | 51.13691 | -0.27335 | 2075 ft | 206 kts | 251° |
| 2026-04-14 16:10 | 51.13380 | -0.29626 | 2535 ft | 216 kts | 256° |
| 2026-04-14 16:11 | 51.13442 | -0.32047 | 3282 ft | 225 kts | 280° |
| 2026-04-14 16:11 | 51.14129 | -0.34342 | 3867 ft | 239 kts | 303° |
| 2026-04-14 16:11 | 51.15408 | -0.36064 | 3987 ft | 246 kts | 331° |
| 2026-04-14 16:11 | 51.17072 | -0.36728 | 4009 ft | 251 kts | 359° |
| 2026-04-14 16:12 | 51.18771 | -0.36167 | 4010 ft | 251 kts | 26° |
| 2026-04-14 16:12 | 51.20145 | -0.34478 | 4012 ft | 252 kts | 55° |
| 2026-04-14 16:12 | 51.20905 | -0.32024 | 4011 ft | 245 kts | 82° |
| 2026-04-14 16:12 | 51.20914 | -0.29375 | 4210 ft | 237 kts | 111° |
| 2026-04-14 16:13 | 51.20290 | -0.27076 | 5084 ft | 227 kts | 120° |
| 2026-04-14 16:13 | 51.19811 | -0.24601 | 5596 ft | 242 kts | 104° |
| 2026-04-14 16:13 | 51.19739 | -0.21879 | 6202 ft | 254 kts | 80° |
| 2026-04-14 16:13 | 51.20322 | -0.19153 | 6664 ft | 270 kts | 74° |
| 2026-04-14 16:14 | 51.20880 | -0.16179 | 6962 ft | 287 kts | 78° |
| 2026-04-14 16:14 | 51.21341 | -0.13094 | 7546 ft | 292 kts | 81° |
| 2026-04-14 16:14 | 51.21766 | -0.09917 | 8233 ft | 294 kts | 81° |
| 2026-04-14 16:14 | 51.22181 | -0.06663 | 8963 ft | 297 kts | 81° |
| 2026-04-14 16:15 | 51.22581 | -0.03465 | 9692 ft | 300 kts | 82° |
| 2026-04-14 16:15 | 51.22991 | -0.00188 | 10334 ft | 304 kts | 81° |
| 2026-04-14 16:15 | 51.23427 | 0.03287 | 10392 ft | 326 kts | 80° |
| 2026-04-14 16:15 | 51.23884 | 0.06905 | 10497 ft | 348 kts | 81° |
| 2026-04-14 16:16 | 51.24377 | 0.10795 | 10604 ft | 368 kts | 81° |
| 2026-04-14 16:16 | 51.24903 | 0.14894 | 10791 ft | 384 kts | 80° |
| 2026-04-14 16:16 | 51.25327 | 0.19192 | 11195 ft | 390 kts | 87° |
| 2026-04-14 16:16 | 51.25245 | 0.23532 | 11701 ft | 393 kts | 98° |
| 2026-04-14 16:17 | 51.24920 | 0.27823 | 12213 ft | 398 kts | 98° |
| 2026-04-14 16:17 | 51.24583 | 0.32235 | 12698 ft | 403 kts | 97° |
| 2026-04-14 16:17 | 51.24243 | 0.36700 | 13272 ft | 407 kts | 97° |
| 2026-04-14 16:17 | 51.23899 | 0.41204 | 13808 ft | 412 kts | 97° |
| 2026-04-14 16:18 | 51.23549 | 0.45761 | 14315 ft | 415 kts | 97° |
| 2026-04-14 16:18 | 51.23195 | 0.50347 | 14888 ft | 417 kts | 98° |
| 2026-04-14 16:18 | 51.22840 | 0.54937 | 15484 ft | 418 kts | 98° |
| 2026-04-14 16:18 | 51.22480 | 0.59558 | 16046 ft | 421 kts | 98° |
| 2026-04-14 16:19 | 51.22117 | 0.64207 | 16615 ft | 424 kts | 98° |
| 2026-04-14 16:19 | 51.21749 | 0.68883 | 17181 ft | 427 kts | 98° |
| 2026-04-14 16:19 | 51.21377 | 0.73600 | 17685 ft | 430 kts | 98° |
| 2026-04-14 16:19 | 51.21003 | 0.78343 | 18240 ft | 432 kts | 98° |
| 2026-04-14 16:20 | 51.20623 | 0.83127 | 18691 ft | 436 kts | 98° |
| 2026-04-14 16:20 | 51.20237 | 0.87939 | 19093 ft | 439 kts | 97° |
| 2026-04-14 16:20 | 51.19978 | 0.91142 | 19378 ft | 441 kts | 97° |
| 2026-04-14 16:20 | 51.19584 | 0.96003 | 19840 ft | 444 kts | 97° |
| 2026-04-14 16:21 | 51.19050 | 1.02564 | 20352 ft | 448 kts | 96° |
| 2026-04-14 16:21 | 51.18645 | 1.07510 | 20727 ft | 452 kts | 96° |
| 2026-04-14 16:21 | 51.18373 | 1.10807 | 20971 ft | 454 kts | 96° |
| 2026-04-14 16:21 | 51.17817 | 1.17513 | 21456 ft | 459 kts | 96° |
| 2026-04-14 16:22 | 51.17538 | 1.20855 | 21691 ft | 461 kts | 96° |
| 2026-04-14 16:22 | 51.17109 | 1.25935 | 22040 ft | 464 kts | 96° |
| 2026-04-14 16:22 | 51.16674 | 1.31051 | 22395 ft | 467 kts | 96° |
| 2026-04-14 16:22 | 51.16237 | 1.36197 | 22734 ft | 470 kts | 95° |
| 2026-04-14 16:23 | 51.15870 | 1.41388 | 23074 ft | 473 kts | 93° |
| 2026-04-14 16:23 | 51.15598 | 1.46622 | 23472 ft | 474 kts | 91° |
| 2026-04-14 16:23 | 51.15384 | 1.51869 | 23838 ft | 476 kts | 91° |
| 2026-04-14 16:23 | 51.15188 | 1.57149 | 24130 ft | 478 kts | 90° |
| 2026-04-14 16:24 | 51.14981 | 1.62447 | 24431 ft | 481 kts | 91° |
| 2026-04-14 16:24 | 51.14749 | 1.67770 | 24724 ft | 483 kts | 91° |
| 2026-04-14 16:24 | 51.14492 | 1.73090 | 25013 ft | 485 kts | 91° |
| 2026-04-14 16:24 | 51.14218 | 1.78456 | 25293 ft | 487 kts | 91° |
| 2026-04-14 16:25 | 51.13935 | 1.83839 | 25574 ft | 489 kts | 91° |
| 2026-04-14 16:25 | 51.13649 | 1.89247 | 25847 ft | 491 kts | 91° |
| 2026-04-14 16:25 | 51.13359 | 1.94666 | 26169 ft | 493 kts | 91° |
| 2026-04-14 16:25 | 51.13071 | 2.00115 | 26460 ft | 494 kts | 91° |
| 2026-04-14 16:26 | 51.12784 | 2.05579 | 26743 ft | 497 kts | 91° |
| 2026-04-14 16:26 | 51.12495 | 2.11058 | 27070 ft | 497 kts | 91° |
| 2026-04-14 16:26 | 51.12202 | 2.16537 | 27463 ft | 496 kts | 91° |
| 2026-04-14 16:26 | 51.11907 | 2.22002 | 27851 ft | 496 kts | 90° |
| 2026-04-14 16:27 | 51.11609 | 2.27463 | 28241 ft | 495 kts | 90° |
| 2026-04-14 16:27 | 51.11311 | 2.32920 | 28619 ft | 495 kts | 90° |
| 2026-04-14 16:27 | 51.11010 | 2.38368 | 29016 ft | 494 kts | 90° |
| 2026-04-14 16:27 | 51.10708 | 2.43817 | 29381 ft | 495 kts | 90° |
| 2026-04-14 16:28 | 51.10402 | 2.49269 | 29722 ft | 495 kts | 90° |
| 2026-04-14 16:28 | 51.10089 | 2.54715 | 30087 ft | 494 kts | 90° |
| 2026-04-14 16:28 | 51.09771 | 2.60163 | 30421 ft | 494 kts | 90° |
| 2026-04-14 16:28 | 51.09317 | 2.65592 | 30730 ft | 498 kts | 97° |
| 2026-04-14 16:29 | 51.08449 | 2.70873 | 31035 ft | 501 kts | 101° |
| 2026-04-14 16:29 | 51.07478 | 2.76195 | 31162 ft | 501 kts | 101° |
| 2026-04-14 16:29 | 51.06515 | 2.81505 | 31194 ft | 499 kts | 101° |
| 2026-04-14 16:30 | 51.04598 | 2.92084 | 31186 ft | 497 kts | 101° |
| 2026-04-14 16:30 | 51.02675 | 3.02639 | 31196 ft | 497 kts | 101° |
| 2026-04-14 16:31 | 51.00728 | 3.13232 | 31583 ft | 500 kts | 101° |
| 2026-04-14 16:31 | 50.99747 | 3.18530 | 31847 ft | 500 kts | 101° |
| 2026-04-14 16:31 | 50.98763 | 3.23821 | 32144 ft | 500 kts | 101° |
| 2026-04-14 16:31 | 50.97775 | 3.29109 | 32447 ft | 499 kts | 101° |
| 2026-04-14 16:32 | 50.96792 | 3.34373 | 32809 ft | 497 kts | 101° |
| 2026-04-14 16:32 | 50.95808 | 3.39619 | 33141 ft | 495 kts | 101° |
| 2026-04-14 16:32 | 50.94827 | 3.44848 | 33444 ft | 494 kts | 100° |
| 2026-04-14 16:32 | 50.93845 | 3.50070 | 33725 ft | 494 kts | 100° |
| 2026-04-14 16:33 | 50.92860 | 3.55285 | 34010 ft | 493 kts | 100° |
| 2026-04-14 16:33 | 50.91875 | 3.60492 | 34278 ft | 493 kts | 100° |
| 2026-04-14 16:33 | 50.90892 | 3.65687 | 34502 ft | 493 kts | 100° |
| 2026-04-14 16:33 | 50.89906 | 3.70888 | 34706 ft | 493 kts | 100° |
| 2026-04-14 16:34 | 50.88916 | 3.76092 | 34905 ft | 493 kts | 101° |
| 2026-04-14 16:34 | 50.87920 | 3.81294 | 35120 ft | 494 kts | 101° |
| 2026-04-14 16:34 | 50.86918 | 3.86500 | 35200 ft | 495 kts | 101° |
| 2026-04-14 16:35 | 50.84910 | 3.96914 | 35208 ft | 495 kts | 101° |
| 2026-04-14 16:35 | 50.82903 | 4.07336 | 35211 ft | 495 kts | 101° |
| 2026-04-14 16:36 | 50.80884 | 4.17745 | 35217 ft | 495 kts | 101° |
| 2026-04-14 16:36 | 50.78854 | 4.28132 | 35222 ft | 494 kts | 101° |
| 2026-04-14 16:37 | 50.76819 | 4.38504 | 35226 ft | 494 kts | 101° |
| 2026-04-14 16:37 | 50.74763 | 4.48864 | 35231 ft | 495 kts | 102° |
| 2026-04-14 16:38 | 50.72695 | 4.59222 | 35234 ft | 495 kts | 102° |
| 2026-04-14 16:38 | 50.70627 | 4.69574 | 35232 ft | 494 kts | 102° |
| 2026-04-14 16:39 | 50.68552 | 4.79904 | 35241 ft | 493 kts | 102° |
| 2026-04-14 16:39 | 50.66485 | 4.90130 | 35239 ft | 492 kts | 102° |
| 2026-04-14 16:40 | 50.64586 | 5.00459 | 35233 ft | 489 kts | 98° |
| 2026-04-14 16:40 | 50.62977 | 5.10854 | 35238 ft | 488 kts | 97° |
| 2026-04-14 16:41 | 50.61379 | 5.21237 | 35254 ft | 488 kts | 99° |
| 2026-04-14 16:41 | 50.59691 | 5.31583 | 35240 ft | 488 kts | 99° |
| 2026-04-14 16:42 | 50.57950 | 5.41894 | 35236 ft | 487 kts | 100° |
| 2026-04-14 16:42 | 50.56209 | 5.52203 | 35233 ft | 487 kts | 99° |
| 2026-04-14 16:43 | 50.54482 | 5.62506 | 35249 ft | 487 kts | 100° |
| 2026-04-14 16:43 | 50.52753 | 5.72805 | 35236 ft | 487 kts | 101° |
| 2026-04-14 16:44 | 50.51006 | 5.83090 | 35227 ft | 487 kts | 101° |
| 2026-04-14 16:44 | 50.49251 | 5.93366 | 35215 ft | 487 kts | 101° |
| 2026-04-14 16:45 | 50.46617 | 6.08667 | 35239 ft | 486 kts | 101° |
| 2026-04-14 16:45 | 50.44847 | 6.18880 | 35227 ft | 485 kts | 101° |
| 2026-04-14 16:46 | 50.43060 | 6.29062 | 35218 ft | 484 kts | 101° |
| 2026-04-14 16:46 | 50.41281 | 6.39235 | 35211 ft | 483 kts | 100° |
| 2026-04-14 16:47 | 50.39791 | 6.49481 | 35227 ft | 481 kts | 97° |
| 2026-04-14 16:47 | 50.38484 | 6.59747 | 35221 ft | 480 kts | 97° |
| 2026-04-14 16:48 | 50.37136 | 6.69990 | 35220 ft | 480 kts | 97° |
| 2026-04-14 16:48 | 50.35714 | 6.80192 | 35216 ft | 479 kts | 98° |
| 2026-04-14 16:49 | 50.34252 | 6.90376 | 35215 ft | 479 kts | 98° |
| 2026-04-14 16:49 | 50.32794 | 7.00549 | 35231 ft | 479 kts | 98° |
| 2026-04-14 16:50 | 50.31345 | 7.10707 | 35220 ft | 478 kts | 98° |
| 2026-04-14 16:50 | 50.29886 | 7.20849 | 35215 ft | 478 kts | 98° |
| 2026-04-14 16:51 | 50.28411 | 7.30985 | 35213 ft | 478 kts | 98° |
| 2026-04-14 16:51 | 50.26936 | 7.41103 | 35225 ft | 477 kts | 98° |
| 2026-04-14 16:52 | 50.25451 | 7.51210 | 35227 ft | 477 kts | 99° |
| 2026-04-14 16:52 | 50.23957 | 7.61294 | 35220 ft | 476 kts | 99° |
| 2026-04-14 16:53 | 50.22457 | 7.71371 | 35214 ft | 476 kts | 99° |
| 2026-04-14 16:53 | 50.20948 | 7.81439 | 35215 ft | 476 kts | 99° |
| 2026-04-14 16:54 | 50.19434 | 7.91500 | 35226 ft | 476 kts | 99° |
| 2026-04-14 16:54 | 50.17918 | 8.01482 | 35223 ft | 476 kts | 99° |
| 2026-04-14 16:55 | 50.16385 | 8.11519 | 35222 ft | 476 kts | 99° |
| 2026-04-14 16:55 | 50.14846 | 8.21543 | 35222 ft | 476 kts | 99° |
| 2026-04-14 16:56 | 50.13301 | 8.31567 | 35233 ft | 475 kts | 100° |
| 2026-04-14 16:56 | 50.11745 | 8.41566 | 35230 ft | 475 kts | 100° |
| 2026-04-14 16:57 | 50.10182 | 8.51546 | 35244 ft | 474 kts | 100° |
| 2026-04-14 16:57 | 50.08614 | 8.61512 | 35247 ft | 473 kts | 100° |
| 2026-04-14 16:58 | 50.07038 | 8.71463 | 35246 ft | 473 kts | 100° |
| 2026-04-14 16:58 | 50.05375 | 8.81371 | 35237 ft | 475 kts | 106° |
| 2026-04-14 16:59 | 50.03184 | 8.91069 | 35229 ft | 475 kts | 106° |
| 2026-04-14 16:59 | 50.00996 | 9.00764 | 35220 ft | 475 kts | 106° |
| 2026-04-14 17:00 | 49.98802 | 9.10451 | 35210 ft | 475 kts | 106° |
| 2026-04-14 17:00 | 49.96597 | 9.20127 | 35217 ft | 475 kts | 107° |
| 2026-04-14 17:01 | 49.94386 | 9.29775 | 35220 ft | 474 kts | 107° |
| 2026-04-14 17:01 | 49.92168 | 9.39408 | 35207 ft | 474 kts | 107° |
| 2026-04-14 17:02 | 49.89947 | 9.49023 | 35211 ft | 473 kts | 107° |
| 2026-04-14 17:02 | 49.87717 | 9.58616 | 35220 ft | 473 kts | 108° |
| 2026-04-14 17:03 | 49.85480 | 9.68187 | 35214 ft | 472 kts | 108° |
| 2026-04-14 17:03 | 49.83237 | 9.77746 | 35218 ft | 472 kts | 108° |
| 2026-04-14 17:04 | 49.80994 | 9.87294 | 35217 ft | 472 kts | 108° |
| 2026-04-14 17:04 | 49.78756 | 9.96765 | 35212 ft | 471 kts | 108° |
| 2026-04-14 17:05 | 49.76501 | 10.06285 | 35235 ft | 471 kts | 109° |
| 2026-04-14 17:05 | 49.74232 | 10.15788 | 35227 ft | 471 kts | 109° |
| 2026-04-14 17:06 | 49.71961 | 10.25274 | 35233 ft | 470 kts | 109° |
| 2026-04-14 17:06 | 49.69690 | 10.34744 | 35242 ft | 470 kts | 109° |
| 2026-04-14 17:07 | 49.67406 | 10.44196 | 35243 ft | 470 kts | 109° |
| 2026-04-14 17:07 | 49.65108 | 10.53634 | 35242 ft | 470 kts | 109° |
| 2026-04-14 17:08 | 49.62808 | 10.63063 | 35242 ft | 469 kts | 109° |
| 2026-04-14 17:08 | 49.60506 | 10.72478 | 35235 ft | 469 kts | 110° |
| 2026-04-14 17:09 | 49.58199 | 10.81884 | 35238 ft | 469 kts | 110° |
| 2026-04-14 17:09 | 49.55879 | 10.91277 | 35244 ft | 469 kts | 110° |
| 2026-04-14 17:10 | 49.53941 | 10.99078 | 35241 ft | 469 kts | 110° |
| 2026-04-14 17:10 | 49.51359 | 11.08292 | 35241 ft | 469 kts | 116° |
| 2026-04-14 17:11 | 49.47940 | 11.18714 | 35242 ft | 470 kts | 116° |
| 2026-04-14 17:11 | 49.45466 | 11.26219 | 35220 ft | 470 kts | 117° |
| 2026-04-14 17:12 | 49.42515 | 11.35165 | 35218 ft | 469 kts | 117° |
| 2026-04-14 17:12 | 49.39553 | 11.44098 | 35210 ft | 469 kts | 117° |
| 2026-04-14 17:13 | 49.36588 | 11.53011 | 35218 ft | 469 kts | 117° |
| 2026-04-14 17:13 | 49.33613 | 11.61907 | 35214 ft | 469 kts | 117° |
| 2026-04-14 17:14 | 49.30637 | 11.70792 | 35208 ft | 468 kts | 118° |
| 2026-04-14 17:14 | 49.27656 | 11.79653 | 35203 ft | 468 kts | 118° |
| 2026-04-14 17:15 | 49.24671 | 11.88496 | 35194 ft | 467 kts | 118° |
| 2026-04-14 17:15 | 49.21677 | 11.97325 | 35212 ft | 467 kts | 118° |
| 2026-04-14 17:16 | 49.18709 | 12.06086 | 35212 ft | 467 kts | 118° |
| 2026-04-14 17:16 | 49.15694 | 12.14943 | 35204 ft | 466 kts | 119° |
| 2026-04-14 17:17 | 49.12708 | 12.23653 | 35196 ft | 466 kts | 119° |
| 2026-04-14 17:17 | 49.09693 | 12.32407 | 35189 ft | 466 kts | 119° |
| 2026-04-14 17:18 | 49.06686 | 12.41152 | 35177 ft | 465 kts | 119° |
| 2026-04-14 17:18 | 49.03680 | 12.49885 | 35177 ft | 465 kts | 119° |
| 2026-04-14 17:19 | 49.00665 | 12.58598 | 35182 ft | 464 kts | 119° |
| 2026-04-14 17:19 | 48.97642 | 12.67284 | 35184 ft | 464 kts | 120° |
| 2026-04-14 17:20 | 48.94608 | 12.75955 | 35174 ft | 464 kts | 120° |
| 2026-04-14 17:20 | 48.91575 | 12.84611 | 35177 ft | 464 kts | 120° |
| 2026-04-14 17:21 | 48.88536 | 12.93259 | 35174 ft | 464 kts | 120° |
| 2026-04-14 17:21 | 48.85491 | 13.01895 | 35182 ft | 464 kts | 120° |
| 2026-04-14 17:22 | 48.82443 | 13.10522 | 35181 ft | 464 kts | 120° |
| 2026-04-14 17:22 | 48.79387 | 13.19132 | 35180 ft | 464 kts | 120° |
| 2026-04-14 17:23 | 48.76329 | 13.27723 | 35193 ft | 462 kts | 120° |
| 2026-04-14 17:23 | 48.73272 | 13.36270 | 35190 ft | 460 kts | 120° |
| 2026-04-14 17:24 | 48.70218 | 13.44780 | 35190 ft | 459 kts | 120° |
| 2026-04-14 17:24 | 48.67163 | 13.53259 | 35192 ft | 458 kts | 120° |
| 2026-04-14 17:25 | 48.64132 | 13.61740 | 35186 ft | 458 kts | 119° |
| 2026-04-14 17:25 | 48.61342 | 13.70337 | 35178 ft | 459 kts | 117° |
| 2026-04-14 17:26 | 48.58623 | 13.79060 | 35190 ft | 459 kts | 117° |
| 2026-04-14 17:26 | 48.55849 | 13.87728 | 35180 ft | 458 kts | 118° |
| 2026-04-14 17:27 | 48.53023 | 13.96354 | 35188 ft | 458 kts | 118° |
| 2026-04-14 17:27 | 48.50184 | 14.04975 | 35175 ft | 459 kts | 118° |
| 2026-04-14 17:28 | 48.47346 | 14.13590 | 35195 ft | 459 kts | 118° |
| 2026-04-14 17:28 | 48.44507 | 14.22212 | 35198 ft | 459 kts | 118° |
| 2026-04-14 17:29 | 48.41665 | 14.30824 | 35199 ft | 459 kts | 118° |
| 2026-04-14 17:29 | 48.38812 | 14.39430 | 35194 ft | 459 kts | 118° |
| 2026-04-14 17:30 | 48.35957 | 14.48020 | 35197 ft | 459 kts | 118° |
| 2026-04-14 17:30 | 48.33086 | 14.56605 | 35198 ft | 459 kts | 118° |
| 2026-04-14 17:31 | 48.30211 | 14.65174 | 35197 ft | 459 kts | 118° |
| 2026-04-14 17:31 | 48.27328 | 14.73738 | 35187 ft | 459 kts | 118° |
| 2026-04-14 17:32 | 48.24443 | 14.82285 | 35190 ft | 460 kts | 119° |
| 2026-04-14 17:32 | 48.21554 | 14.90844 | 35190 ft | 460 kts | 119° |
| 2026-04-14 17:33 | 48.18656 | 14.99388 | 35191 ft | 460 kts | 119° |
| 2026-04-14 17:34 | 48.14289 | 15.12186 | 35181 ft | 460 kts | 119° |
| 2026-04-14 17:34 | 48.11375 | 15.20713 | 35183 ft | 460 kts | 119° |
| 2026-04-14 17:35 | 48.08470 | 15.29181 | 35187 ft | 461 kts | 119° |
| 2026-04-14 17:35 | 48.05534 | 15.37695 | 35187 ft | 461 kts | 119° |
| 2026-04-14 17:36 | 48.02589 | 15.46203 | 35181 ft | 461 kts | 120° |
| 2026-04-14 17:36 | 47.99635 | 15.54703 | 35178 ft | 461 kts | 120° |
| 2026-04-14 17:37 | 47.96681 | 15.63203 | 35184 ft | 461 kts | 120° |
| 2026-04-14 17:37 | 47.93715 | 15.71698 | 35187 ft | 462 kts | 120° |
| 2026-04-14 17:38 | 47.90743 | 15.80182 | 35188 ft | 462 kts | 120° |
| 2026-04-14 17:38 | 47.87756 | 15.88653 | 35184 ft | 461 kts | 120° |
| 2026-04-14 17:39 | 47.84769 | 15.97107 | 35190 ft | 461 kts | 120° |
| 2026-04-14 17:39 | 47.81788 | 16.05556 | 35191 ft | 461 kts | 120° |
| 2026-04-14 17:40 | 47.78803 | 16.13982 | 35191 ft | 460 kts | 120° |
| 2026-04-14 17:40 | 47.75806 | 16.22392 | 35186 ft | 460 kts | 120° |
| 2026-04-14 17:41 | 47.72809 | 16.30792 | 35188 ft | 460 kts | 120° |
| 2026-04-14 17:41 | 47.69805 | 16.39175 | 35188 ft | 460 kts | 120° |
| 2026-04-14 17:42 | 47.66798 | 16.47544 | 35187 ft | 459 kts | 120° |
| 2026-04-14 17:42 | 47.63788 | 16.55898 | 35182 ft | 459 kts | 120° |
| 2026-04-14 17:43 | 47.60770 | 16.64244 | 35177 ft | 459 kts | 120° |
| 2026-04-14 17:43 | 47.57741 | 16.72573 | 35178 ft | 459 kts | 120° |
| 2026-04-14 17:44 | 47.54749 | 16.80855 | 35176 ft | 459 kts | 120° |
| 2026-04-14 17:44 | 47.51805 | 16.89244 | 35176 ft | 459 kts | 119° |
| 2026-04-14 17:45 | 47.48872 | 16.97644 | 35171 ft | 460 kts | 119° |
| 2026-04-14 17:45 | 47.45910 | 17.06020 | 35166 ft | 460 kts | 120° |
| 2026-04-14 17:46 | 47.42926 | 17.14377 | 35159 ft | 460 kts | 120° |
| 2026-04-14 17:46 | 47.39943 | 17.22727 | 35157 ft | 460 kts | 120° |
| 2026-04-14 17:47 | 47.36957 | 17.31073 | 35148 ft | 460 kts | 120° |
| 2026-04-14 17:47 | 47.33962 | 17.39413 | 35147 ft | 460 kts | 120° |
| 2026-04-14 17:48 | 47.30967 | 17.47739 | 35148 ft | 460 kts | 120° |
| 2026-04-14 17:48 | 47.27962 | 17.56060 | 35149 ft | 460 kts | 120° |
| 2026-04-14 17:49 | 47.24944 | 17.64362 | 35140 ft | 460 kts | 120° |
| 2026-04-14 17:49 | 47.21913 | 17.72672 | 35148 ft | 461 kts | 120° |
| 2026-04-14 17:50 | 47.18883 | 17.80976 | 35153 ft | 461 kts | 120° |
| 2026-04-14 17:50 | 47.15871 | 17.89209 | 35157 ft | 461 kts | 120° |
| 2026-04-14 17:51 | 47.12825 | 17.97504 | 35157 ft | 461 kts | 120° |
| 2026-04-14 17:51 | 47.09779 | 18.05783 | 35157 ft | 461 kts | 120° |
| 2026-04-14 17:52 | 47.06720 | 18.14051 | 35161 ft | 461 kts | 120° |
| 2026-04-14 17:52 | 47.03637 | 18.22291 | 35160 ft | 461 kts | 121° |
| 2026-04-14 17:53 | 47.00475 | 18.30456 | 35160 ft | 461 kts | 122° |
| 2026-04-14 17:53 | 46.97282 | 18.38590 | 35153 ft | 461 kts | 121° |
| 2026-04-14 17:54 | 46.94099 | 18.46731 | 35152 ft | 461 kts | 121° |
| 2026-04-14 17:54 | 46.90920 | 18.54874 | 35151 ft | 461 kts | 121° |
| 2026-04-14 17:55 | 46.87746 | 18.63021 | 35153 ft | 461 kts | 121° |
| 2026-04-14 17:55 | 46.84561 | 18.71155 | 35150 ft | 461 kts | 121° |
| 2026-04-14 17:56 | 46.81359 | 18.79274 | 35150 ft | 461 kts | 122° |
| 2026-04-14 17:56 | 46.78144 | 18.87382 | 35150 ft | 461 kts | 122° |
| 2026-04-14 17:57 | 46.74931 | 18.95486 | 35149 ft | 462 kts | 122° |
| 2026-04-14 17:57 | 46.71716 | 19.03586 | 35144 ft | 462 kts | 121° |
| 2026-04-14 17:58 | 46.69090 | 19.10184 | 35147 ft | 462 kts | 121° |
| 2026-04-14 17:58 | 46.66398 | 19.16925 | 35148 ft | 462 kts | 121° |
| 2026-04-14 17:59 | 46.63179 | 19.24951 | 35151 ft | 463 kts | 122° |
| 2026-04-14 17:59 | 46.59927 | 19.33028 | 35154 ft | 463 kts | 122° |
| 2026-04-14 18:00 | 46.56678 | 19.41100 | 35159 ft | 463 kts | 121° |
| 2026-04-14 18:00 | 46.52319 | 19.51892 | 35155 ft | 463 kts | 122° |
| 2026-04-14 18:01 | 46.49053 | 19.59936 | 35153 ft | 463 kts | 122° |
| 2026-04-14 18:01 | 46.45808 | 19.67931 | 35148 ft | 463 kts | 121° |
| 2026-04-14 18:02 | 46.42529 | 19.75968 | 35147 ft | 463 kts | 121° |
| 2026-04-14 18:02 | 46.39105 | 19.83827 | 35144 ft | 461 kts | 129° |
| 2026-04-14 18:03 | 46.35070 | 19.91068 | 35147 ft | 461 kts | 130° |
| 2026-04-14 18:03 | 46.31032 | 19.98301 | 35149 ft | 461 kts | 130° |
| 2026-04-14 18:04 | 46.27002 | 20.05508 | 35143 ft | 461 kts | 130° |
| 2026-04-14 18:04 | 46.22954 | 20.12712 | 35142 ft | 462 kts | 130° |
| 2026-04-14 18:05 | 46.18909 | 20.19905 | 35139 ft | 462 kts | 130° |
| 2026-04-14 18:05 | 46.14852 | 20.27107 | 35143 ft | 462 kts | 130° |
| 2026-04-14 18:06 | 46.10785 | 20.34301 | 35138 ft | 463 kts | 130° |
| 2026-04-14 18:06 | 46.06696 | 20.41481 | 35131 ft | 463 kts | 130° |
| 2026-04-14 18:07 | 46.02610 | 20.48655 | 35144 ft | 463 kts | 130° |
| 2026-04-14 18:07 | 45.98526 | 20.55827 | 35141 ft | 464 kts | 130° |
| 2026-04-14 18:08 | 45.94434 | 20.62999 | 35135 ft | 464 kts | 130° |
| 2026-04-14 18:08 | 45.90333 | 20.70150 | 35134 ft | 464 kts | 130° |
| 2026-04-14 18:09 | 45.86219 | 20.77295 | 35134 ft | 465 kts | 131° |
| 2026-04-14 18:09 | 45.82102 | 20.84440 | 35141 ft | 465 kts | 131° |
| 2026-04-14 18:10 | 45.77977 | 20.91586 | 35136 ft | 465 kts | 131° |
| 2026-04-14 18:10 | 45.73849 | 20.98724 | 35140 ft | 465 kts | 131° |
| 2026-04-14 18:11 | 45.69712 | 21.05852 | 35136 ft | 466 kts | 131° |
| 2026-04-14 18:11 | 45.65562 | 21.12958 | 35139 ft | 466 kts | 131° |
| 2026-04-14 18:12 | 45.61446 | 21.20020 | 35141 ft | 465 kts | 130° |
| 2026-04-14 18:12 | 45.57329 | 21.27146 | 35141 ft | 465 kts | 131° |
| 2026-04-14 18:13 | 45.53218 | 21.34274 | 35136 ft | 466 kts | 131° |
| 2026-04-14 18:13 | 45.49083 | 21.41392 | 35139 ft | 466 kts | 131° |
| 2026-04-14 18:14 | 45.44933 | 21.48498 | 35142 ft | 467 kts | 131° |
| 2026-04-14 18:14 | 45.40768 | 21.55573 | 35140 ft | 466 kts | 131° |
| 2026-04-14 18:15 | 45.36619 | 21.62658 | 35148 ft | 466 kts | 131° |
| 2026-04-14 18:15 | 45.32475 | 21.69742 | 35157 ft | 466 kts | 131° |
| 2026-04-14 18:16 | 45.28314 | 21.76814 | 35154 ft | 467 kts | 131° |
| 2026-04-14 18:16 | 45.24135 | 21.83886 | 35148 ft | 468 kts | 131° |
| 2026-04-14 18:17 | 45.19942 | 21.90960 | 35154 ft | 469 kts | 132° |
| 2026-04-14 18:17 | 45.15740 | 21.98027 | 35179 ft | 469 kts | 131° |
| 2026-04-14 18:18 | 45.11483 | 22.05033 | 35197 ft | 469 kts | 132° |
| 2026-04-14 18:18 | 45.07195 | 22.11990 | 35205 ft | 469 kts | 132° |
| 2026-04-14 18:19 | 45.02912 | 22.18929 | 35222 ft | 468 kts | 132° |
| 2026-04-14 18:19 | 44.98639 | 22.25861 | 35234 ft | 468 kts | 132° |
| 2026-04-14 18:20 | 44.94360 | 22.32779 | 35223 ft | 468 kts | 133° |
| 2026-04-14 18:20 | 44.90081 | 22.39696 | 35228 ft | 468 kts | 133° |
| 2026-04-14 18:21 | 44.85790 | 22.46614 | 35223 ft | 469 kts | 133° |
| 2026-04-14 18:21 | 44.81491 | 22.53523 | 35224 ft | 469 kts | 133° |
| 2026-04-14 18:22 | 44.77181 | 22.60421 | 35228 ft | 470 kts | 133° |
| 2026-04-14 18:22 | 44.72888 | 22.67286 | 35221 ft | 471 kts | 133° |
| 2026-04-14 18:23 | 44.68559 | 22.74198 | 35225 ft | 471 kts | 133° |
| 2026-04-14 18:23 | 44.64278 | 22.81182 | 35236 ft | 472 kts | 131° |
| 2026-04-14 18:24 | 44.59959 | 22.88127 | 35210 ft | 472 kts | 135° |
| 2026-04-14 18:24 | 44.55531 | 22.94951 | 35210 ft | 473 kts | 135° |
| 2026-04-14 18:25 | 44.51118 | 23.01808 | 35219 ft | 474 kts | 134° |
| 2026-04-14 18:25 | 44.46735 | 23.08713 | 35226 ft | 475 kts | 134° |
| 2026-04-14 18:26 | 44.42355 | 23.15635 | 35221 ft | 476 kts | 134° |
| 2026-04-14 18:26 | 44.37953 | 23.22560 | 35214 ft | 476 kts | 134° |
| 2026-04-14 18:27 | 44.33531 | 23.29463 | 35217 ft | 477 kts | 135° |
| 2026-04-14 18:27 | 44.29094 | 23.36356 | 35223 ft | 478 kts | 135° |
| 2026-04-14 18:28 | 44.24658 | 23.43266 | 35219 ft | 478 kts | 135° |
| 2026-04-14 18:28 | 44.20219 | 23.50173 | 35222 ft | 478 kts | 135° |
| 2026-04-14 18:29 | 44.15772 | 23.57061 | 35225 ft | 478 kts | 135° |
| 2026-04-14 18:29 | 44.11316 | 23.63936 | 35210 ft | 478 kts | 135° |
| 2026-04-14 18:30 | 44.06857 | 23.70816 | 35205 ft | 479 kts | 135° |
| 2026-04-14 18:30 | 44.02390 | 23.77695 | 35188 ft | 479 kts | 136° |
| 2026-04-14 18:31 | 43.97907 | 23.84563 | 35181 ft | 481 kts | 136° |
| 2026-04-14 18:31 | 43.93410 | 23.91441 | 35182 ft | 482 kts | 136° |
| 2026-04-14 18:32 | 43.88893 | 23.98321 | 35183 ft | 483 kts | 136° |
| 2026-04-14 18:32 | 43.84369 | 24.05214 | 35192 ft | 484 kts | 136° |
| 2026-04-14 18:33 | 43.79832 | 24.12110 | 35203 ft | 484 kts | 136° |
| 2026-04-14 18:34 | 43.70765 | 24.25852 | 35187 ft | 486 kts | 136° |
| 2026-04-14 18:34 | 43.66195 | 24.32735 | 35195 ft | 486 kts | 137° |
| 2026-04-14 18:35 | 43.61621 | 24.39612 | 35192 ft | 486 kts | 137° |
| 2026-04-14 18:35 | 43.57042 | 24.46484 | 35188 ft | 487 kts | 137° |
| 2026-04-14 18:36 | 43.52453 | 24.53357 | 35191 ft | 487 kts | 137° |
| 2026-04-14 18:36 | 43.47858 | 24.60215 | 35192 ft | 487 kts | 137° |
| 2026-04-14 18:37 | 43.43387 | 24.67252 | 35188 ft | 488 kts | 136° |
| 2026-04-14 18:37 | 43.38795 | 24.74133 | 35159 ft | 488 kts | 139° |
| 2026-04-14 18:38 | 43.34105 | 24.80890 | 35164 ft | 489 kts | 139° |
| 2026-04-14 18:38 | 43.29439 | 24.87691 | 35165 ft | 490 kts | 138° |
| 2026-04-14 18:39 | 43.24791 | 24.94559 | 35168 ft | 492 kts | 137° |
| 2026-04-14 18:39 | 43.20137 | 25.01439 | 35173 ft | 492 kts | 138° |
| 2026-04-14 18:40 | 43.15462 | 25.08301 | 35180 ft | 493 kts | 138° |
| 2026-04-14 18:40 | 43.10777 | 25.15154 | 35166 ft | 494 kts | 139° |
| 2026-04-14 18:41 | 43.06075 | 25.22020 | 35178 ft | 495 kts | 139° |
| 2026-04-14 18:41 | 43.01354 | 25.28896 | 35185 ft | 497 kts | 139° |
| 2026-04-14 18:42 | 42.96618 | 25.35772 | 35196 ft | 497 kts | 139° |
| 2026-04-14 18:42 | 42.91878 | 25.42642 | 35220 ft | 497 kts | 139° |
| 2026-04-14 18:43 | 42.87131 | 25.49513 | 35228 ft | 498 kts | 139° |
| 2026-04-14 18:43 | 42.82379 | 25.56377 | 35219 ft | 498 kts | 139° |
| 2026-04-14 18:44 | 42.77608 | 25.63229 | 35207 ft | 499 kts | 140° |
| 2026-04-14 18:44 | 42.72816 | 25.70096 | 35219 ft | 501 kts | 140° |
| 2026-04-14 18:45 | 42.68011 | 25.76976 | 35236 ft | 502 kts | 140° |
| 2026-04-14 18:45 | 42.63195 | 25.83866 | 35240 ft | 503 kts | 140° |
| 2026-04-14 18:46 | 42.58400 | 25.90700 | 35243 ft | 504 kts | 140° |
| 2026-04-14 18:46 | 42.53561 | 25.97581 | 35244 ft | 504 kts | 140° |
| 2026-04-14 18:47 | 42.48721 | 26.04448 | 35245 ft | 504 kts | 140° |
| 2026-04-14 18:47 | 42.43870 | 26.11300 | 35242 ft | 504 kts | 140° |
| 2026-04-14 18:48 | 42.39834 | 26.16993 | 35247 ft | 505 kts | 140° |
| 2026-04-14 18:48 | 42.34968 | 26.23847 | 35249 ft | 505 kts | 140° |
| 2026-04-14 18:49 | 42.30092 | 26.30688 | 35251 ft | 506 kts | 140° |
| 2026-04-14 18:49 | 42.25212 | 26.37533 | 35254 ft | 506 kts | 140° |
| 2026-04-14 18:50 | 42.20330 | 26.44369 | 35249 ft | 506 kts | 141° |
| 2026-04-14 18:50 | 42.15446 | 26.51187 | 35238 ft | 505 kts | 141° |
| 2026-04-14 18:51 | 42.13003 | 26.54589 | 34985 ft | 505 kts | 141° |
| 2026-04-14 18:51 | 42.10557 | 26.57990 | 34743 ft | 506 kts | 141° |
| 2026-04-14 18:51 | 42.08107 | 26.61397 | 34498 ft | 507 kts | 141° |
| 2026-04-14 18:51 | 42.05649 | 26.64814 | 34261 ft | 508 kts | 142° |
| 2026-04-14 18:52 | 42.03183 | 26.68231 | 33652 ft | 511 kts | 142° |
| 2026-04-14 18:52 | 42.00678 | 26.71685 | 32591 ft | 519 kts | 141° |
| 2026-04-14 18:52 | 41.98176 | 26.75220 | 31722 ft | 526 kts | 136° |
| 2026-04-14 18:52 | 41.95987 | 26.79171 | 31376 ft | 529 kts | 127° |
| 2026-04-14 18:53 | 41.94068 | 26.83415 | 31189 ft | 531 kts | 126° |
| 2026-04-14 18:53 | 41.92148 | 26.87658 | 31237 ft | 532 kts | 126° |
| 2026-04-14 18:53 | 41.90214 | 26.91905 | 30498 ft | 535 kts | 126° |
| 2026-04-14 18:53 | 41.88254 | 26.96192 | 29300 ft | 542 kts | 126° |
| 2026-04-14 18:54 | 41.86283 | 27.00503 | 28292 ft | 542 kts | 125° |
| 2026-04-14 18:54 | 41.84175 | 27.04614 | 27848 ft | 526 kts | 134° |
| 2026-04-14 18:54 | 41.81828 | 27.08343 | 27579 ft | 522 kts | 134° |
| 2026-04-14 18:54 | 41.79492 | 27.12055 | 27336 ft | 520 kts | 134° |
| 2026-04-14 18:55 | 41.77194 | 27.15705 | 27089 ft | 519 kts | 134° |
| 2026-04-14 18:55 | 41.74864 | 27.19391 | 26832 ft | 518 kts | 134° |
| 2026-04-14 18:55 | 41.72535 | 27.23057 | 26517 ft | 515 kts | 134° |
| 2026-04-14 18:55 | 41.70203 | 27.26714 | 25324 ft | 520 kts | 134° |
| 2026-04-14 18:56 | 41.67814 | 27.30452 | 24400 ft | 519 kts | 133° |
| 2026-04-14 18:56 | 41.65516 | 27.34049 | 23712 ft | 512 kts | 133° |
| 2026-04-14 18:56 | 41.63224 | 27.37641 | 22976 ft | 504 kts | 133° |
| 2026-04-14 18:56 | 41.60962 | 27.41183 | 22175 ft | 498 kts | 133° |
| 2026-04-14 18:57 | 41.58726 | 27.44678 | 21403 ft | 492 kts | 133° |
| 2026-04-14 18:57 | 41.56515 | 27.48126 | 20600 ft | 486 kts | 133° |
| 2026-04-14 18:57 | 41.54335 | 27.51514 | 19660 ft | 476 kts | 133° |